createdAt,value
2023-04-03T00:09:41.097Z,99.99
2023-04-03T00:24:40.772Z,99.99
2023-04-03T00:39:40.912Z,99.99
2023-04-03T00:54:41.020Z,99.99
2023-04-03T01:09:41.257Z,99.99
2023-04-03T01:24:41.307Z,99.99
2023-04-03T01:39:41.350Z,96.47
2023-04-03T01:54:41.439Z,91.91
2023-04-03T02:09:41.973Z,89.58
2023-04-03T02:24:42.038Z,90.14
2023-04-03T02:39:41.750Z,85.35
2023-04-03T02:54:41.852Z,83.20
2023-04-03T03:09:41.984Z,85.10
2023-04-03T03:24:42.164Z,88.40
2023-04-03T03:39:42.178Z,84.92
2023-04-03T03:54:42.257Z,77.03
2023-04-03T04:09:42.396Z,80.08
2023-04-03T04:24:42.475Z,81.28
2023-04-03T04:39:42.582Z,81.17
2023-04-03T04:54:42.691Z,76.29
2023-04-03T05:09:43.264Z,73.94
2023-04-03T05:24:43.293Z,73.18
2023-04-03T05:39:43.099Z,86.99
2023-04-03T05:54:43.089Z,88.27
2023-04-03T06:09:43.608Z,96.22
2023-04-03T06:24:43.344Z,99.99
2023-04-03T06:39:43.387Z,97.03
2023-04-03T06:54:43.456Z,86.07
2023-04-03T07:09:45.196Z,70.82
2023-04-03T07:24:45.716Z,68.10
2023-04-03T07:39:45.779Z,66.60
2023-04-03T07:54:46.259Z,71.81
2023-04-03T08:09:47.382Z,76.26
2023-04-03T08:24:58.285Z,75.71
2023-04-03T08:39:52.675Z,72.53
2023-04-03T08:54:53.640Z,66.30
2023-04-03T09:09:53.923Z,65.27
2023-04-03T09:24:53.951Z,64.46
2023-04-03T09:39:54.625Z,60.61
2023-04-03T09:54:55.594Z,58.26
2023-04-03T10:09:55.327Z,58.34
2023-04-03T10:24:55.397Z,60.91
2023-04-03T10:39:55.520Z,56.00
2023-04-03T10:54:55.872Z,56.71
2023-04-03T11:09:55.741Z,54.25
2023-04-03T11:24:55.737Z,56.02
2023-04-03T11:39:56.741Z,58.52
2023-04-03T11:54:56.739Z,56.90
2023-04-03T12:09:57.440Z,57.88
2023-04-03T12:24:58.003Z,59.25
2023-04-03T12:39:58.231Z,61.68
2023-04-03T12:54:58.649Z,63.81
2023-04-03T13:09:58.460Z,58.80
2023-04-03T13:24:58.428Z,60.12
2023-04-03T13:39:58.905Z,62.96
2023-04-03T13:54:58.567Z,64.49
2023-04-03T14:09:59.150Z,65.03
2023-04-03T14:24:59.234Z,66.33
2023-04-03T14:39:58.977Z,67.00
2023-04-03T14:54:58.974Z,59.11
2023-04-03T15:09:59.572Z,62.88
2023-04-03T15:24:59.182Z,69.12
2023-04-03T15:40:00.304Z,70.95
2023-04-03T15:55:00.894Z,72.67
2023-04-03T16:10:01.128Z,72.25
2023-04-03T16:25:01.558Z,75.84
2023-04-03T16:40:01.654Z,78.20
2023-04-03T16:55:01.749Z,79.44
2023-04-03T17:10:02.837Z,80.52
2023-04-03T17:25:03.216Z,81.97
2023-04-03T17:40:03.278Z,82.77
2023-04-03T17:55:03.370Z,85.26
2023-04-03T18:10:03.456Z,85.99
2023-04-03T18:25:03.216Z,88.98
2023-04-03T18:40:03.229Z,91.87
2023-04-03T18:55:03.273Z,95.91
2023-04-03T19:10:03.472Z,96.43
2023-04-03T19:25:04.029Z,98.14
2023-04-03T19:40:04.586Z,99.40
2023-04-03T19:55:04.801Z,99.96
2023-04-03T20:10:04.960Z,99.99
2023-04-03T20:25:06.639Z,99.99
2023-04-03T20:40:06.995Z,99.99
2023-04-03T20:55:07.130Z,99.99
2023-04-03T21:10:07.263Z,99.99
2023-04-03T21:25:07.385Z,98.07
2023-04-03T21:40:07.457Z,96.65
2023-04-03T21:55:07.567Z,95.79
2023-04-03T22:10:07.732Z,95.06
2023-04-03T22:25:07.913Z,96.87
2023-04-03T22:40:07.955Z,93.28
2023-04-03T22:55:18.583Z,88.66
2023-04-03T23:10:13.191Z,82.07
2023-04-03T23:25:13.263Z,81.38
2023-04-03T23:40:13.357Z,75.28
2023-04-03T23:55:13.467Z,73.88
